createdAt,value
2023-03-11T00:00:02.899Z,990.34
2023-03-11T00:05:02.868Z,990.39
2023-03-11T00:10:03.387Z,990.72
2023-03-11T00:15:03.234Z,991.18
2023-03-11T00:20:02.915Z,991.49
2023-03-11T00:25:03.601Z,991.75
2023-03-11T00:30:03.292Z,991.94
2023-03-11T00:35:03.118Z,992.13
2023-03-11T00:40:02.985Z,992.35
2023-03-11T00:45:02.762Z,992.42
2023-03-11T00:50:03.557Z,992.6
2023-03-11T00:55:03.555Z,992.86
2023-03-11T01:00:03.224Z,993.01
2023-03-11T01:05:03.135Z,993.24
2023-03-11T01:10:02.840Z,993.4
2023-03-11T01:15:02.784Z,993.54
2023-03-11T01:20:03.563Z,993.65
2023-03-11T01:25:03.420Z,993.81
2023-03-11T01:30:03.118Z,993.92
2023-03-11T01:35:03.381Z,994.2
2023-03-11T01:40:03.190Z,994.32
2023-03-11T01:45:03.063Z,994.32
2023-03-11T01:50:03.010Z,994.7
2023-03-11T01:55:03.169Z,994.83
2023-03-11T02:00:03.665Z,995.09
2023-03-11T02:05:03.408Z,995.24
2023-03-11T02:10:03.235Z,995.45
2023-03-11T02:15:03.611Z,995.58
2023-03-11T02:20:03.180Z,995.86
2023-03-11T02:25:03.047Z,995.96
2023-03-11T02:30:02.822Z,996.16
2023-03-11T02:35:03.486Z,996.44
2023-03-11T02:40:03.246Z,996.58
2023-03-11T02:45:02.905Z,997.04
2023-03-11T02:50:02.958Z,997.16
2023-03-11T02:55:02.995Z,997.46
2023-03-11T03:00:03.598Z,997.61
2023-03-11T03:05:03.243Z,997.92
2023-03-11T03:10:03.116Z,998.07
2023-03-11T03:15:03.315Z,998.22
2023-03-11T03:20:02.928Z,998.33
2023-03-11T03:25:02.698Z,998.57
2023-03-11T03:30:03.913Z,998.74
2023-03-11T03:35:03.257Z,998.8
2023-03-11T03:40:03.301Z,999.04
2023-03-11T03:45:03.386Z,999.05
2023-03-11T03:50:03.012Z,999.17
2023-03-11T03:55:03.362Z,999.5
2023-03-11T04:00:03.635Z,999.63
2023-03-11T04:05:03.431Z,999.89
2023-03-11T04:10:03.363Z,1000.13
2023-03-11T04:15:03.298Z,1000.26
2023-03-11T04:20:03.164Z,1000.36
2023-03-11T04:25:02.886Z,1000.48
2023-03-11T04:30:03.675Z,1000.54
2023-03-11T04:35:03.513Z,1000.65
2023-03-11T04:40:03.352Z,1000.62
2023-03-11T04:45:03.078Z,1000.84
2023-03-11T04:50:02.708Z,1000.94
2023-03-11T04:55:03.685Z,1001.05
2023-03-11T05:00:03.401Z,1001.17
2023-03-11T05:05:03.256Z,1001.24
2023-03-11T05:10:02.950Z,1001.36
2023-03-11T05:15:02.828Z,1001.64
2023-03-11T05:20:02.710Z,1001.83
2023-03-11T05:25:03.453Z,1001.76
2023-03-11T05:30:03.446Z,1002.01
2023-03-11T05:35:03.189Z,1002.03
2023-03-11T05:40:02.890Z,1002.24
2023-03-11T05:45:03.070Z,1002.02
2023-03-11T05:50:02.869Z,1002.4
2023-03-11T05:55:02.883Z,1002.59
2023-03-11T06:00:03.516Z,1002.67
2023-03-11T06:05:04.425Z,1002.8
2023-03-11T06:10:02.989Z,1002.87
2023-03-11T06:15:02.806Z,1003.1
2023-03-11T06:20:03.639Z,1003.09
2023-03-11T06:25:02.981Z,1003.34
2023-03-11T06:30:03.908Z,1003.23
2023-03-11T06:35:03.563Z,1003.41
2023-03-11T06:40:03.345Z,1003.5
2023-03-11T06:45:03.244Z,1003.64
2023-03-11T06:50:03.017Z,1003.74
2023-03-11T06:55:03.185Z,1003.91
2023-03-11T07:00:03.777Z,1004.11
2023-03-11T07:05:03.352Z,1004.14
2023-03-11T07:10:03.051Z,1004.36
2023-03-11T07:15:02.747Z,1004.42
2023-03-11T07:20:03.763Z,1004.51
2023-03-11T07:25:03.272Z,1004.65
2023-03-11T07:30:03.269Z,1004.85
2023-03-11T07:35:02.748Z,1004.93
2023-03-11T07:40:03.518Z,1005.09
2023-03-11T07:45:03.288Z,1005.11
2023-03-11T07:50:03.005Z,1005.19
2023-03-11T07:55:02.905Z,1005.25
2023-03-11T08:00:03.620Z,1005.36
2023-03-11T08:05:03.497Z,1005.57
2023-03-11T08:10:03.220Z,1005.56
2023-03-11T08:15:02.882Z,1005.85
2023-03-11T08:20:03.617Z,1005.84
2023-03-11T08:25:03.591Z,1005.97
2023-03-11T08:30:03.284Z,1006.06
2023-03-11T08:35:03.252Z,1006.21
2023-03-11T08:40:03.637Z,1006.36
2023-03-11T08:45:03.433Z,1006.41
2023-03-11T08:50:03.005Z,1006.46
2023-03-11T08:55:02.811Z,1006.57
2023-03-11T09:00:03.583Z,1006.71
2023-03-11T09:05:03.270Z,1006.79
2023-03-11T09:10:02.941Z,1006.8
2023-03-11T09:15:02.756Z,1006.88
2023-03-11T09:20:03.417Z,1007.03
2023-03-11T09:25:03.220Z,1007.04
2023-03-11T09:30:03.087Z,1007.01
2023-03-11T09:35:03.052Z,1007.11
2023-03-11T09:40:02.873Z,1007.28
2023-03-11T09:45:03.080Z,1007.34
2023-03-11T09:50:02.845Z,1007.46
2023-03-11T09:55:03.638Z,1007.58
2023-03-11T10:00:02.752Z,1007.72
2023-03-11T10:05:03.767Z,1007.65
2023-03-11T10:10:03.327Z,1007.82
2023-03-11T10:15:03.073Z,1007.94
2023-03-11T10:20:02.831Z,1008.07
2023-03-11T10:25:03.397Z,1008.18
2023-03-11T10:30:03.602Z,1008.24
2023-03-11T10:35:03.274Z,1008.38
2023-03-11T10:40:03.045Z,1008.46
2023-03-11T10:45:02.748Z,1008.46
2023-03-11T10:50:03.602Z,1008.44
2023-03-11T10:55:03.870Z,1008.55
2023-03-11T11:00:03.264Z,1008.54
2023-03-11T11:05:03.118Z,1008.52
2023-03-11T11:10:03.227Z,1008.56
2023-03-11T11:15:02.817Z,1008.53
2023-03-11T11:20:02.851Z,1008.63
2023-03-11T11:25:03.822Z,1008.62
2023-03-11T11:30:03.781Z,1008.49
2023-03-11T11:35:03.213Z,1008.61
2023-03-11T11:40:03.247Z,1008.67
2023-03-11T11:45:02.961Z,1008.73
2023-03-11T11:50:02.761Z,1008.64
2023-03-11T11:55:03.855Z,1008.67
2023-03-11T12:00:04.029Z,1008.57
2023-03-11T12:05:02.977Z,1008.7
2023-03-11T12:10:24.456Z,1008.67
2023-03-11T12:15:03.249Z,1008.61
2023-03-11T12:20:03.011Z,1008.77
2023-03-11T12:25:02.244Z,1008.82
2023-03-11T12:30:03.520Z,1008.81
2023-03-11T12:35:03.564Z,1008.74
2023-03-11T12:40:03.141Z,1008.81
2023-03-11T12:45:03.203Z,1008.87
2023-03-11T12:50:03.170Z,1008.84
2023-03-11T12:55:03.832Z,1008.85
2023-03-11T13:00:03.643Z,1008.89
2023-03-11T13:05:03.029Z,1009.11
2023-03-11T13:10:03.001Z,1009.13
2023-03-11T13:15:03.242Z,1009.16
2023-03-11T13:20:03.724Z,1009.14
2023-03-11T13:25:03.436Z,1009.26
2023-03-11T13:30:03.084Z,1009.31
2023-03-11T13:35:02.964Z,1009.37
2023-03-11T13:40:02.749Z,1009.37
2023-03-11T13:45:03.602Z,1009.43
2023-03-11T13:50:03.414Z,1009.46
2023-03-11T13:55:03.538Z,1009.48
2023-03-11T14:00:02.868Z,1009.62
2023-03-11T14:05:03.636Z,1009.63
2023-03-11T14:10:03.377Z,1009.62
2023-03-11T14:15:03.084Z,1009.78
2023-03-11T14:20:02.818Z,1009.79
2023-03-11T14:25:02.639Z,1009.85
2023-03-11T14:30:03.485Z,1009.91
2023-03-11T14:35:03.221Z,1009.89
2023-03-11T14:40:02.966Z,1009.96
2023-03-11T14:45:02.774Z,1009.97
2023-03-11T14:50:03.497Z,1010.03
2023-03-11T14:55:03.672Z,1010.14
2023-03-11T15:00:03.397Z,1010.11
2023-03-11T15:05:03.004Z,1010.18
2023-03-11T15:10:03.074Z,1010.16
2023-03-11T15:15:02.962Z,1010.22
2023-03-11T15:20:03.576Z,1010.23
2023-03-11T15:25:03.409Z,1010.21
2023-03-11T15:30:03.147Z,1010.27
2023-03-11T15:35:03.007Z,1010.25
2023-03-11T15:40:03.527Z,1010.3
2023-03-11T15:45:03.433Z,1010.31
2023-03-11T15:50:03.761Z,1010.43
2023-03-11T15:55:03.281Z,1010.44
2023-03-11T16:00:03.979Z,1010.65
2023-03-11T16:05:04.336Z,1010.53
2023-03-11T16:10:05.061Z,1010.7
2023-03-11T16:15:02.800Z,1010.7
2023-03-11T16:20:03.169Z,1010.82
2023-03-11T16:25:03.611Z,1010.88
2023-03-11T16:30:03.525Z,1011.01
2023-03-11T16:35:03.294Z,1011.04
2023-03-11T16:40:03.048Z,1011.15
2023-03-11T16:45:07.782Z,1011.28
2023-03-11T16:50:04.083Z,1011.3
2023-03-11T16:55:03.367Z,1011.33
2023-03-11T17:00:03.252Z,1011.39
2023-03-11T17:05:03.561Z,1011.41
2023-03-11T17:10:02.910Z,1011.57
2023-03-11T17:15:02.793Z,1011.58
2023-03-11T17:20:03.586Z,1011.6
2023-03-11T17:25:03.452Z,1011.62
2023-03-11T17:30:03.347Z,1011.66
2023-03-11T17:35:03.737Z,1011.78
2023-03-11T17:40:03.402Z,1011.83
2023-03-11T17:45:03.170Z,1012
2023-03-11T17:50:02.893Z,1012.12
2023-03-11T17:55:03.654Z,1012.21
2023-03-11T18:00:03.445Z,1012.18
2023-03-11T18:05:03.113Z,1012.15
2023-03-11T18:10:02.837Z,1012.21
2023-03-11T18:15:03.755Z,1012.31
2023-03-11T18:20:03.316Z,1012.37
2023-03-11T18:25:03.095Z,1012.34
2023-03-11T18:30:03.130Z,1012.4
2023-03-11T18:35:02.909Z,1012.3
2023-03-11T18:40:02.818Z,1012.36
2023-03-11T18:45:03.789Z,1012.42
2023-03-11T18:50:03.201Z,1012.45
2023-03-11T18:55:03.301Z,1012.36
2023-03-11T19:00:02.801Z,1012.48
2023-03-11T19:05:03.872Z,1012.53
2023-03-11T19:10:03.236Z,1012.52
2023-03-11T19:15:03.134Z,1012.53
2023-03-11T19:20:03.069Z,1012.54
2023-03-11T19:25:02.895Z,1012.64
2023-03-11T19:30:02.694Z,1012.59
2023-03-11T19:35:03.385Z,1012.58
2023-03-11T19:40:03.510Z,1012.55
2023-03-11T19:45:03.284Z,1012.56
2023-03-11T19:50:03.031Z,1012.63
2023-03-11T19:55:03.351Z,1012.63
2023-03-11T20:00:02.908Z,1012.73
2023-03-11T20:05:04.054Z,1012.72
2023-03-11T20:10:03.305Z,1012.67
2023-03-11T20:15:03.460Z,1012.64
2023-03-11T20:20:03.107Z,1012.73
2023-03-11T20:25:03.350Z,1012.68
2023-03-11T20:30:02.879Z,1012.68
2023-03-11T20:35:03.758Z,1012.72
2023-03-11T20:40:03.399Z,1012.76
2023-03-11T20:45:03.458Z,1012.75
2023-03-11T20:50:03.192Z,1012.7
2023-03-11T20:55:02.917Z,1012.77
2023-03-11T21:00:02.896Z,1012.85
2023-03-11T21:05:03.537Z,1012.9
2023-03-11T21:10:03.729Z,1012.84
2023-03-11T21:15:03.489Z,1012.87
2023-03-11T21:20:03.788Z,1012.87
2023-03-11T21:25:03.866Z,1012.89
2023-03-11T21:30:03.161Z,1012.71
2023-03-11T21:35:03.991Z,1012.72
2023-03-11T21:40:03.632Z,1012.68
2023-03-11T21:45:03.821Z,1012.73
2023-03-11T21:50:03.514Z,1012.79
2023-03-11T21:55:02.995Z,1012.92
2023-03-11T22:00:04.208Z,1012.8
2023-03-11T22:05:03.929Z,1012.91
2023-03-11T22:10:03.817Z,1012.78
2023-03-11T22:15:03.213Z,1012.71
2023-03-11T22:20:04.401Z,1012.79
2023-03-11T22:25:03.367Z,1012.78
2023-03-11T22:30:03.176Z,1012.78
2023-03-11T22:35:02.995Z,1012.71
2023-03-11T22:40:03.911Z,1012.75
2023-03-11T22:45:03.580Z,1012.75
2023-03-11T22:50:03.505Z,1012.83
2023-03-11T22:55:03.339Z,1012.89
2023-03-11T23:00:02.801Z,1012.8
2023-03-11T23:05:02.827Z,1012.88
2023-03-11T23:10:03.482Z,1012.85
2023-03-11T23:15:03.311Z,1012.88
2023-03-11T23:20:03.577Z,1012.92
2023-03-11T23:25:03.327Z,1012.86
2023-03-11T23:30:02.663Z,1012.83
2023-03-11T23:35:03.392Z,1012.94
2023-03-11T23:40:03.160Z,1012.89
2023-03-11T23:45:03.132Z,1012.92
2023-03-11T23:50:02.719Z,1012.97
2023-03-11T23:55:03.812Z,1012.99
